createdAt,value
2018-05-29T00:01:43.748Z,11.73
2018-05-29T00:04:12.155Z,11.40
2018-05-29T00:06:40.546Z,12.63
2018-05-29T00:09:08.990Z,11.10
2018-05-29T00:11:37.329Z,11.27
2018-05-29T00:14:05.702Z,12.70
2018-05-29T00:16:34.030Z,10.40
2018-05-29T00:19:02.359Z,11.53
2018-05-29T00:21:30.701Z,10.67
2018-05-29T00:23:59.037Z,11.57
2018-05-29T00:26:27.386Z,11.43
2018-05-29T00:28:55.733Z,11.37
2018-05-29T00:31:24.161Z,13.73
2018-05-29T00:33:52.489Z,9.93
2018-05-29T00:36:20.828Z,10.90
2018-05-29T00:38:49.180Z,13.47
2018-05-29T00:41:17.506Z,9.80
2018-05-29T00:43:45.911Z,11.67
2018-05-29T00:46:14.231Z,10.00
2018-05-29T00:48:42.589Z,10.73
2018-05-29T00:51:10.908Z,9.60
2018-05-29T00:53:39.283Z,10.90
2018-05-29T00:56:07.687Z,11.20
2018-05-29T00:58:36.057Z,11.30
2018-05-29T01:01:04.464Z,10.53
2018-05-29T01:03:32.792Z,11.57
2018-05-29T01:06:01.129Z,10.63
2018-05-29T01:08:29.552Z,10.17
2018-05-29T01:10:57.910Z,10.13
2018-05-29T01:13:26.245Z,11.77
2018-05-29T01:15:54.581Z,11.43
2018-05-29T01:18:22.998Z,10.67
2018-05-29T01:20:51.395Z,10.43
2018-05-29T01:23:19.732Z,9.53
2018-05-29T01:25:48.066Z,10.67
2018-05-29T01:28:16.463Z,9.13
2018-05-29T01:33:19.513Z,10.33
2018-05-29T01:35:47.889Z,11.90
2018-05-29T01:38:16.293Z,11.50
2018-05-29T01:40:44.659Z,10.27
2018-05-29T01:43:12.969Z,10.13
2018-05-29T01:45:41.311Z,12.87
2018-05-29T01:48:09.647Z,11.20
2018-05-29T01:50:37.997Z,14.73
2018-05-29T01:53:06.415Z,10.13
2018-05-29T01:55:34.823Z,9.80
2018-05-29T01:58:03.135Z,9.80
2018-05-29T02:00:31.518Z,11.83
2018-05-29T02:02:59.861Z,10.30
2018-05-29T02:05:28.177Z,10.23
2018-05-29T02:07:56.522Z,11.13
2018-05-29T02:10:24.854Z,15.70
2018-05-29T02:12:53.185Z,11.10
2018-05-29T02:15:21.529Z,10.43
2018-05-29T02:17:49.867Z,10.83
2018-05-29T02:20:18.209Z,9.73
2018-05-29T02:22:46.622Z,10.73
2018-05-29T02:25:14.941Z,11.43
2018-05-29T02:27:43.327Z,9.63
2018-05-29T02:30:11.658Z,9.60
2018-05-29T02:32:39.972Z,8.80
2018-05-29T02:35:08.362Z,9.73
2018-05-29T02:37:36.787Z,9.80
2018-05-29T02:40:05.140Z,10.53
2018-05-29T02:42:33.531Z,8.40
2018-05-29T02:45:01.842Z,8.80
2018-05-29T02:47:30.244Z,12.00
2018-05-29T02:49:58.626Z,13.10
2018-05-29T02:52:26.951Z,10.43
2018-05-29T02:54:55.298Z,8.00
2018-05-29T02:57:24.228Z,8.93
2018-05-29T02:59:52.611Z,11.67
2018-05-29T03:02:20.980Z,9.77
2018-05-29T03:04:49.388Z,8.00
2018-05-29T03:07:17.710Z,8.63
2018-05-29T03:09:46.021Z,9.67
2018-05-29T03:12:14.360Z,9.10
2018-05-29T03:14:42.690Z,8.77
2018-05-29T03:17:11.052Z,9.70
2018-05-29T03:19:39.427Z,9.00
2018-05-29T03:22:07.760Z,8.47
2018-05-29T03:24:36.095Z,14.43
2018-05-29T03:27:04.432Z,13.03
2018-05-29T03:29:32.761Z,7.33
2018-05-29T03:32:01.077Z,8.83
2018-05-29T03:34:29.515Z,8.27
2018-05-29T03:36:57.950Z,12.80
2018-05-29T03:39:26.389Z,14.17
2018-05-29T03:41:54.743Z,12.63
2018-05-29T03:44:23.174Z,9.10
2018-05-29T03:46:51.511Z,8.73
2018-05-29T03:49:19.828Z,13.13
2018-05-29T03:51:48.250Z,9.40
2018-05-29T03:54:16.624Z,13.60
2018-05-29T03:56:45.025Z,38.43
2018-05-29T03:59:13.364Z,57.83
2018-05-29T04:01:42.790Z,53.97
2018-05-29T04:04:11.133Z,83.30
2018-05-29T04:06:39.475Z,47.00
2018-05-29T04:09:07.801Z,50.57
2018-05-29T04:11:36.244Z,44.40
2018-05-29T04:14:04.598Z,43.93
2018-05-29T04:16:32.937Z,42.63
2018-05-29T04:19:01.288Z,39.10
2018-05-29T04:21:29.657Z,19.83
2018-05-29T04:23:58.107Z,13.00
2018-05-29T04:26:26.418Z,13.83
2018-05-29T04:28:54.845Z,10.77
2018-05-29T04:31:23.167Z,7.33
2018-05-29T04:33:51.484Z,9.80
2018-05-29T04:36:19.948Z,9.97
2018-05-29T04:38:48.302Z,8.77
2018-05-29T04:41:16.635Z,14.67
2018-05-29T04:43:44.954Z,7.87
2018-05-29T04:46:13.282Z,9.03
2018-05-29T04:48:41.673Z,9.00
2018-05-29T04:51:10.782Z,11.30
2018-05-29T04:53:39.184Z,10.03
2018-05-29T04:56:07.524Z,9.60
2018-05-29T04:58:35.857Z,9.37
2018-05-29T05:01:04.179Z,8.10
2018-05-29T05:03:32.513Z,10.90
2018-05-29T05:06:00.828Z,8.13
2018-05-29T05:08:29.253Z,9.60
2018-05-29T05:10:57.579Z,8.80
2018-05-29T05:13:26.538Z,13.67
2018-05-29T05:15:54.865Z,8.13
2018-05-29T05:18:23.201Z,9.47
2018-05-29T05:20:51.532Z,9.53
2018-05-29T05:23:19.834Z,8.67
2018-05-29T05:25:48.801Z,9.03
2018-05-29T05:28:17.120Z,14.47
2018-05-29T05:30:45.461Z,8.77
2018-05-29T05:33:13.781Z,9.30
2018-05-29T05:35:42.111Z,10.80
2018-05-29T05:38:10.433Z,7.87
2018-05-29T05:40:39.194Z,8.43
2018-05-29T05:43:07.498Z,7.50
2018-05-29T05:45:35.833Z,7.77
2018-05-29T05:48:04.179Z,7.47
2018-05-29T05:50:32.510Z,9.33
2018-05-29T05:53:00.887Z,7.63
2018-05-29T05:55:29.222Z,7.83
2018-05-29T05:57:57.634Z,7.53
2018-05-29T06:00:25.978Z,9.60
2018-05-29T06:02:54.380Z,7.37
2018-05-29T06:05:22.769Z,10.93
2018-05-29T06:07:51.107Z,7.20
2018-05-29T06:10:19.437Z,8.03
2018-05-29T06:12:47.751Z,8.60
2018-05-29T06:15:22.284Z,11.70
2018-05-29T06:17:50.627Z,10.20
2018-05-29T06:20:18.954Z,9.87
2018-05-29T06:22:47.287Z,10.50
2018-05-29T06:25:15.615Z,8.97
2018-05-29T06:27:44.047Z,9.52
2018-05-29T06:30:12.435Z,7.77
2018-05-29T06:32:40.828Z,6.25
2018-05-29T06:35:09.227Z,10.60
2018-05-29T06:37:37.891Z,7.60
2018-05-29T06:40:06.206Z,8.07
2018-05-29T06:42:34.534Z,8.17
2018-05-29T06:45:03.232Z,7.50
2018-05-29T06:47:31.480Z,8.83
2018-05-29T06:49:59.870Z,7.17
2018-05-29T06:52:28.269Z,8.32
2018-05-29T06:54:56.603Z,7.75
2018-05-29T06:57:25.120Z,8.63
2018-05-29T06:59:53.442Z,7.78
2018-05-29T07:02:21.759Z,7.85
2018-05-29T07:04:50.135Z,10.90
2018-05-29T07:07:18.448Z,8.35
2018-05-29T07:09:46.818Z,8.85
2018-05-29T07:12:15.125Z,10.15
2018-05-29T07:14:43.493Z,8.77
2018-05-29T07:17:11.821Z,8.77
2018-05-29T07:19:40.168Z,9.80
2018-05-29T07:22:08.483Z,6.78
2018-05-29T07:24:36.845Z,6.95
2018-05-29T07:27:05.267Z,7.97
2018-05-29T07:29:33.642Z,8.52
2018-05-29T07:32:01.950Z,7.95
2018-05-29T07:34:30.489Z,9.00
2018-05-29T07:36:58.793Z,7.53
2018-05-29T07:39:27.236Z,9.77
2018-05-29T07:41:56.620Z,12.55
2018-05-29T07:44:24.942Z,8.20
2018-05-29T07:46:53.316Z,8.55
2018-05-29T07:49:21.706Z,12.82
2018-05-29T07:51:50.022Z,7.90
2018-05-29T07:54:18.390Z,7.75
2018-05-29T07:56:46.718Z,7.97
2018-05-29T07:59:15.034Z,9.13
2018-05-29T08:01:43.365Z,8.15
2018-05-29T08:04:11.674Z,9.20
2018-05-29T08:06:40.088Z,7.15
2018-05-29T08:09:08.402Z,7.85
2018-05-29T08:11:36.753Z,8.45
2018-05-29T08:14:05.095Z,8.60
2018-05-29T08:16:33.409Z,9.20
2018-05-29T08:19:01.731Z,7.40
2018-05-29T08:21:30.103Z,12.37
2018-05-29T08:23:58.435Z,15.75
2018-05-29T08:26:26.768Z,12.07
2018-05-29T08:28:55.140Z,7.70
2018-05-29T08:31:23.562Z,7.62
2018-05-29T08:33:51.950Z,8.20
2018-05-29T08:36:20.281Z,8.93
2018-05-29T08:38:48.642Z,8.82
2018-05-29T08:41:16.959Z,7.35
2018-05-29T08:43:45.301Z,7.95
2018-05-29T08:46:13.767Z,7.57
2018-05-29T08:48:42.150Z,8.52
2018-05-29T08:51:10.452Z,9.30
2018-05-29T08:53:38.805Z,11.30
2018-05-29T08:56:07.197Z,14.18
2018-05-29T08:58:35.531Z,8.85
2018-05-29T09:01:03.893Z,9.10
2018-05-29T09:03:32.234Z,8.23
2018-05-29T09:06:00.564Z,8.73
2018-05-29T09:08:28.912Z,8.00
2018-05-29T09:10:57.347Z,8.70
2018-05-29T09:13:25.718Z,7.75
2018-05-29T09:15:54.068Z,8.43
2018-05-29T09:18:22.524Z,7.53
2018-05-29T09:20:50.925Z,8.25
2018-05-29T09:23:19.303Z,8.23
2018-05-29T09:25:47.699Z,8.05
2018-05-29T09:28:16.088Z,7.55
2018-05-29T09:30:44.490Z,8.52
2018-05-29T09:33:13.115Z,11.75
2018-05-29T09:35:41.463Z,8.45
2018-05-29T09:38:09.785Z,7.72
2018-05-29T09:40:38.144Z,7.87
2018-05-29T09:43:06.861Z,8.77
2018-05-29T09:45:35.162Z,7.95
2018-05-29T09:48:03.478Z,8.40
2018-05-29T09:50:31.812Z,7.95
2018-05-29T09:53:00.147Z,8.15
2018-05-29T09:55:28.601Z,8.70
2018-05-29T09:57:56.915Z,7.35
2018-05-29T10:00:31.028Z,7.65
2018-05-29T10:02:59.448Z,8.75
2018-05-29T10:05:27.804Z,8.20
2018-05-29T10:07:56.146Z,8.45
2018-05-29T10:10:24.446Z,8.57
2018-05-29T10:12:55.207Z,10.10
2018-05-29T10:15:24.565Z,9.98
2018-05-29T10:17:52.900Z,8.98
2018-05-29T10:20:21.258Z,10.38
2018-05-29T10:22:49.555Z,7.10
2018-05-29T10:25:17.858Z,8.95
2018-05-29T10:27:46.223Z,11.07
2018-05-29T10:30:14.627Z,7.68
2018-05-29T10:32:42.963Z,7.65
2018-05-29T10:35:11.263Z,7.20
2018-05-29T10:37:39.681Z,7.47
2018-05-29T10:40:07.981Z,7.12
2018-05-29T10:42:36.299Z,8.07
2018-05-29T10:45:04.625Z,8.23
2018-05-29T10:47:33.046Z,7.60
2018-05-29T10:50:01.344Z,6.62
2018-05-29T10:52:29.675Z,7.62
2018-05-29T10:54:58.032Z,9.20
2018-05-29T10:57:26.360Z,7.00
2018-05-29T10:59:54.703Z,7.35
2018-05-29T11:02:23.056Z,7.20
2018-05-29T11:04:51.411Z,7.68
2018-05-29T11:07:19.731Z,8.23
2018-05-29T11:09:48.169Z,7.47
2018-05-29T11:12:16.557Z,6.43
2018-05-29T11:14:44.967Z,6.95
2018-05-29T11:17:13.440Z,7.22
2018-05-29T11:19:41.857Z,8.30
2018-05-29T11:22:10.246Z,7.53
2018-05-29T11:24:38.615Z,7.30
2018-05-29T11:27:06.928Z,7.87
2018-05-29T11:29:35.258Z,10.88
2018-05-29T11:32:03.620Z,11.02
2018-05-29T11:34:32.004Z,10.73
2018-05-29T11:37:00.331Z,7.82
2018-05-29T11:39:28.630Z,8.30
2018-05-29T11:41:56.940Z,7.12
2018-05-29T11:44:25.263Z,9.32
2018-05-29T11:46:53.589Z,7.65
2018-05-29T11:49:21.915Z,7.82
2018-05-29T11:51:50.223Z,7.43
2018-05-29T11:54:18.545Z,8.57
2018-05-29T11:56:46.873Z,8.23
2018-05-29T11:59:15.208Z,8.98
2018-05-29T12:01:43.682Z,8.45
2018-05-29T12:04:11.970Z,9.50
2018-05-29T12:06:40.516Z,8.75
2018-05-29T12:09:08.875Z,13.13
2018-05-29T12:11:37.288Z,9.18
2018-05-29T12:14:05.620Z,9.38
2018-05-29T12:16:33.939Z,8.73
2018-05-29T12:19:02.340Z,8.70
2018-05-29T12:21:30.655Z,9.52
2018-05-29T12:23:58.973Z,9.65
2018-05-29T12:26:27.279Z,10.23
2018-05-29T12:28:55.580Z,8.40
2018-05-29T12:31:23.911Z,9.25
2018-05-29T12:33:52.228Z,9.35
2018-05-29T12:36:20.535Z,8.60
2018-05-29T12:38:48.859Z,8.45
2018-05-29T12:41:17.217Z,10.10
2018-05-29T12:43:45.562Z,8.88
2018-05-29T12:46:14.020Z,8.48
2018-05-29T12:48:42.335Z,8.95
2018-05-29T12:51:10.688Z,9.18
2018-05-29T12:53:39.127Z,9.18
2018-05-29T12:56:07.514Z,9.15
2018-05-29T12:58:35.906Z,8.90
2018-05-29T13:01:04.230Z,9.02
2018-05-29T13:03:32.535Z,8.73
2018-05-29T13:06:00.852Z,9.88
2018-05-29T13:08:29.197Z,8.65
2018-05-29T13:10:57.511Z,8.63
2018-05-29T13:13:25.853Z,10.10
2018-05-29T13:15:54.238Z,9.50
2018-05-29T13:18:22.556Z,8.90
2018-05-29T13:20:50.918Z,10.90
2018-05-29T13:23:19.312Z,9.00
2018-05-29T13:25:47.631Z,9.70
2018-05-29T13:28:15.961Z,9.07
2018-05-29T13:30:44.403Z,8.45
2018-05-29T13:33:12.780Z,8.82
2018-05-29T13:35:41.106Z,13.07
2018-05-29T13:38:09.428Z,8.70
2018-05-29T13:40:37.898Z,9.75
2018-05-29T13:43:06.211Z,9.48
2018-05-29T13:45:34.690Z,9.02
2018-05-29T13:48:02.995Z,9.73
2018-05-29T13:50:31.311Z,9.10
2018-05-29T13:52:59.720Z,8.20
2018-05-29T13:55:28.109Z,8.60
2018-05-29T13:57:56.510Z,8.82
2018-05-29T14:00:24.815Z,8.32
2018-05-29T14:02:53.144Z,9.70
2018-05-29T14:05:21.461Z,10.98
2018-05-29T14:07:50.331Z,9.35
2018-05-29T14:10:18.645Z,8.30
2018-05-29T14:12:46.960Z,8.43
2018-05-29T14:15:15.280Z,8.07
2018-05-29T14:17:43.599Z,8.90
2018-05-29T14:20:11.939Z,28.27
2018-05-29T14:22:40.258Z,9.05
2018-05-29T14:25:08.567Z,8.65
2018-05-29T14:27:36.883Z,8.45
2018-05-29T14:30:05.231Z,8.90
2018-05-29T14:32:33.597Z,9.38
2018-05-29T14:35:01.965Z,10.43
2018-05-29T14:37:30.361Z,8.80
2018-05-29T14:39:58.717Z,9.25
2018-05-29T14:42:27.059Z,8.70
2018-05-29T14:44:55.362Z,8.68
2018-05-29T14:47:24.617Z,9.38
2018-05-29T14:49:52.972Z,9.63
2018-05-29T14:52:21.376Z,10.15
2018-05-29T14:54:49.744Z,9.80
2018-05-29T14:57:18.078Z,11.07
2018-05-29T14:59:46.425Z,9.40
2018-05-29T15:02:14.735Z,9.48
2018-05-29T15:04:43.088Z,10.07
2018-05-29T15:07:11.398Z,10.13
2018-05-29T15:09:39.769Z,9.32
2018-05-29T15:12:08.081Z,10.32
2018-05-29T15:14:36.475Z,10.43
2018-05-29T15:17:04.791Z,9.93
2018-05-29T15:19:33.109Z,8.88
2018-05-29T15:22:01.416Z,9.48
2018-05-29T15:24:29.742Z,9.70
2018-05-29T15:26:58.141Z,8.95
2018-05-29T15:29:26.465Z,9.82
2018-05-29T15:31:54.912Z,9.48
2018-05-29T15:34:23.304Z,9.10
2018-05-29T15:36:51.652Z,8.80
2018-05-29T15:39:19.971Z,9.73
2018-05-29T15:41:48.291Z,9.40
2018-05-29T15:44:21.921Z,10.18
2018-05-29T15:46:50.220Z,8.52
2018-05-29T15:49:18.529Z,9.07
2018-05-29T15:51:46.859Z,8.77
2018-05-29T15:54:15.188Z,9.13
2018-05-29T15:56:43.512Z,8.60
2018-05-29T15:59:11.941Z,8.88
2018-05-29T16:01:40.283Z,8.85
2018-05-29T16:04:08.588Z,15.35
2018-05-29T16:06:36.935Z,7.80
2018-05-29T16:09:06.207Z,11.65
2018-05-29T16:11:34.528Z,9.23
2018-05-29T16:14:02.889Z,8.73
2018-05-29T16:16:31.380Z,8.00
2018-05-29T16:18:59.700Z,7.53
2018-05-29T16:21:28.072Z,9.05
2018-05-29T16:23:56.477Z,8.38
2018-05-29T16:26:24.827Z,13.30
2018-05-29T16:28:53.138Z,7.35
2018-05-29T16:31:21.509Z,9.88
2018-05-29T16:33:49.818Z,9.00
2018-05-29T16:36:18.243Z,8.95
2018-05-29T16:38:46.608Z,9.40
2018-05-29T16:41:15.020Z,9.05
2018-05-29T16:43:43.374Z,9.63
2018-05-29T16:46:11.681Z,9.90
2018-05-29T16:48:40.107Z,9.65
2018-05-29T16:51:08.437Z,10.95
2018-05-29T16:53:36.753Z,9.27
2018-05-29T16:56:05.103Z,11.23
2018-05-29T16:58:33.486Z,13.37
2018-05-29T17:01:01.824Z,10.07
2018-05-29T17:03:30.167Z,10.97
2018-05-29T17:05:58.491Z,12.20
2018-05-29T17:08:26.841Z,12.07
2018-05-29T17:10:55.224Z,9.97
2018-05-29T17:13:23.527Z,9.10
2018-05-29T17:15:51.921Z,9.03
2018-05-29T17:18:20.260Z,9.03
2018-05-29T17:20:48.626Z,9.20
2018-05-29T17:23:16.934Z,11.30
2018-05-29T17:25:45.288Z,8.90
2018-05-29T17:28:13.656Z,9.20
2018-05-29T17:30:41.981Z,9.07
2018-05-29T17:33:10.302Z,9.30
2018-05-29T17:35:38.668Z,10.77
2018-05-29T17:38:07.017Z,10.07
2018-05-29T17:40:35.362Z,9.27
2018-05-29T17:43:03.690Z,8.90
2018-05-29T17:45:32.016Z,9.80
2018-05-29T17:48:00.352Z,9.53
2018-05-29T17:50:28.665Z,8.33
2018-05-29T17:52:57.014Z,9.63
2018-05-29T17:55:25.321Z,10.80
2018-05-29T17:57:53.672Z,9.87
2018-05-29T18:00:21.972Z,9.97
2018-05-29T18:02:50.311Z,10.10
2018-05-29T18:05:18.632Z,17.20
2018-05-29T18:07:47.081Z,15.73
2018-05-29T18:10:15.422Z,9.50
2018-05-29T18:12:43.743Z,9.40
2018-05-29T18:15:12.236Z,8.83
2018-05-29T18:17:40.627Z,9.93
2018-05-29T18:20:08.996Z,8.97
2018-05-29T18:22:37.365Z,12.00
2018-05-29T18:25:05.678Z,10.50
2018-05-29T18:27:34.090Z,13.37
2018-05-29T18:30:02.446Z,10.43
2018-05-29T18:32:30.804Z,13.03
2018-05-29T18:34:59.181Z,10.20
2018-05-29T18:37:27.513Z,11.00
2018-05-29T18:39:56.136Z,11.07
2018-05-29T18:42:24.568Z,10.47
2018-05-29T18:44:52.922Z,10.40
2018-05-29T18:47:21.248Z,10.03
2018-05-29T18:49:49.596Z,10.30
2018-05-29T18:52:17.907Z,11.00
2018-05-29T18:54:46.235Z,9.53
2018-05-29T18:57:14.551Z,10.17
2018-05-29T18:59:42.883Z,11.13
2018-05-29T19:02:11.252Z,9.30
2018-05-29T19:04:39.641Z,10.07
2018-05-29T19:07:07.948Z,9.27
2018-05-29T19:09:36.285Z,9.53
2018-05-29T19:12:04.685Z,11.00
2018-05-29T19:14:33.003Z,10.90
2018-05-29T19:17:01.353Z,12.67
2018-05-29T19:19:29.661Z,9.23
2018-05-29T19:21:57.987Z,9.93
2018-05-29T19:24:26.314Z,9.97
2018-05-29T19:26:54.654Z,12.00
2018-05-29T19:29:23.009Z,9.60
2018-05-29T19:31:52.231Z,17.20
2018-05-29T19:34:20.695Z,10.33
2018-05-29T19:36:49.024Z,9.57
2018-05-29T19:39:17.341Z,9.67
2018-05-29T19:41:45.737Z,10.27
2018-05-29T19:44:14.060Z,9.43
2018-05-29T19:46:42.396Z,9.93
2018-05-29T19:49:10.694Z,8.90
2018-05-29T19:51:39.010Z,9.50
2018-05-29T19:54:07.353Z,9.37
2018-05-29T19:56:35.660Z,9.10
2018-05-29T19:59:03.980Z,10.03
2018-05-29T20:01:32.323Z,9.70
2018-05-29T20:04:00.624Z,8.83
2018-05-29T20:06:28.964Z,9.50
2018-05-29T20:08:57.287Z,9.60
2018-05-29T20:11:25.660Z,8.43
2018-05-29T20:13:53.981Z,8.93
2018-05-29T20:16:22.328Z,8.73
2018-05-29T20:18:50.666Z,10.63
2018-05-29T20:21:19.090Z,9.87
2018-05-29T20:23:47.486Z,14.63
2018-05-29T20:26:15.809Z,10.33
2018-05-29T20:28:44.241Z,8.50
2018-05-29T20:31:12.809Z,11.47
2018-05-29T20:33:41.119Z,9.13
2018-05-29T20:36:09.424Z,9.77
2018-05-29T20:38:37.750Z,9.63
2018-05-29T20:41:06.134Z,9.83
2018-05-29T20:43:34.522Z,9.00
2018-05-29T20:46:02.882Z,13.67
2018-05-29T20:48:31.238Z,9.17
2018-05-29T20:50:59.559Z,9.80
2018-05-29T20:53:27.899Z,9.27
2018-05-29T20:55:56.211Z,9.47
2018-05-29T20:58:24.532Z,9.00
2018-05-29T21:00:52.976Z,11.37
2018-05-29T21:03:21.321Z,10.83
2018-05-29T21:05:49.637Z,10.73
2018-05-29T21:08:18.039Z,10.43
2018-05-29T21:10:46.430Z,10.40
2018-05-29T21:13:14.924Z,23.13
2018-05-29T21:15:43.314Z,16.47
2018-05-29T21:18:11.727Z,11.10
2018-05-29T21:20:40.099Z,11.40
2018-05-29T21:23:08.528Z,10.67
2018-05-29T21:25:36.861Z,10.47
2018-05-29T21:28:06.008Z,10.87
2018-05-29T21:30:34.389Z,10.60
2018-05-29T21:33:02.785Z,11.13
2018-05-29T21:35:31.108Z,9.67
2018-05-29T21:37:59.454Z,8.83
2018-05-29T21:40:27.772Z,9.60
2018-05-29T21:42:56.096Z,10.97
2018-05-29T21:45:24.730Z,8.00
2018-05-29T21:47:53.058Z,7.90
2018-05-29T21:50:21.594Z,7.67
2018-05-29T21:52:50.040Z,6.67
2018-05-29T21:55:18.425Z,7.53
2018-05-29T21:57:47.738Z,7.90
2018-05-29T22:00:16.058Z,6.97
2018-05-29T22:02:44.394Z,6.10
2018-05-29T22:05:12.706Z,8.47
2018-05-29T22:07:41.101Z,6.40
2018-05-29T22:10:09.412Z,5.60
2018-05-29T22:12:37.787Z,6.50
2018-05-29T22:15:06.253Z,6.37
2018-05-29T22:17:34.769Z,5.70
2018-05-29T22:20:03.119Z,5.63
2018-05-29T22:22:31.640Z,9.57
2018-05-29T22:25:00.048Z,6.53
2018-05-29T22:27:28.654Z,6.60
2018-05-29T22:29:56.966Z,6.63
2018-05-29T22:32:25.382Z,6.23
2018-05-29T22:34:53.733Z,5.53
2018-05-29T22:37:22.143Z,6.33
2018-05-29T22:39:51.406Z,6.27
2018-05-29T22:42:19.706Z,6.37
2018-05-29T22:44:48.092Z,7.07
2018-05-29T22:47:16.459Z,6.53
2018-05-29T22:49:44.826Z,6.40
2018-05-29T22:52:13.161Z,6.30
2018-05-29T22:54:41.585Z,6.63
2018-05-29T22:57:09.890Z,6.50
2018-05-29T22:59:38.262Z,6.73
2018-05-29T23:02:06.680Z,6.17
2018-05-29T23:04:35.045Z,8.00
2018-05-29T23:07:03.354Z,8.70
2018-05-29T23:09:31.678Z,19.80
2018-05-29T23:12:00.006Z,7.07
2018-05-29T23:14:28.315Z,7.40
2018-05-29T23:16:56.714Z,7.53
2018-05-29T23:19:25.064Z,7.33
2018-05-29T23:21:53.977Z,7.90
2018-05-29T23:24:22.292Z,7.77
2018-05-29T23:26:50.708Z,7.63
2018-05-29T23:29:19.016Z,7.23
2018-05-29T23:31:47.344Z,7.40
2018-05-29T23:34:15.731Z,7.17
2018-05-29T23:36:44.091Z,7.57
2018-05-29T23:39:12.429Z,8.27
2018-05-29T23:41:40.752Z,7.53
2018-05-29T23:44:09.188Z,8.03
2018-05-29T23:46:37.518Z,10.13
2018-05-29T23:49:05.855Z,8.67
2018-05-29T23:51:34.161Z,8.10
2018-05-29T23:59:46.070Z,12.70
